sensor_id;sensor_type;location;lat;lon;timestamp;P1;durP1;ratioP1;P2;durP2;ratioP2
70908;SDS011;58554;52.006;5.926;2023-09-08T00:00:21;11.02;;;8.90;;
70908;SDS011;58554;52.006;5.926;2023-09-08T00:02:47;13.17;;;8.70;;
70908;SDS011;58554;52.006;5.926;2023-09-08T00:05:14;10.50;;;8.57;;
70908;SDS011;58554;52.006;5.926;2023-09-08T00:07:41;11.02;;;8.52;;
70908;SDS011;58554;52.006;5.926;2023-09-08T00:10:08;11.80;;;8.38;;
70908;SDS011;58554;52.006;5.926;2023-09-08T00:12:35;14.80;;;8.88;;
70908;SDS011;58554;52.006;5.926;2023-09-08T00:15:05;12.83;;;8.77;;
70908;SDS011;58554;52.006;5.926;2023-09-08T00:17:33;12.73;;;8.93;;
70908;SDS011;58554;52.006;5.926;2023-09-08T00:19:59;11.85;;;8.90;;
70908;SDS011;58554;52.006;5.926;2023-09-08T00:22:26;13.85;;;8.77;;
70908;SDS011;58554;52.006;5.926;2023-09-08T00:24:53;11.90;;;9.07;;
70908;SDS011;58554;52.006;5.926;2023-09-08T00:27:19;13.70;;;8.87;;
70908;SDS011;58554;52.006;5.926;2023-09-08T00:29:46;11.38;;;8.73;;
70908;SDS011;58554;52.006;5.926;2023-09-08T00:32:15;12.20;;;8.97;;
70908;SDS011;58554;52.006;5.926;2023-09-08T00:34:42;11.65;;;8.27;;
70908;SDS011;58554;52.006;5.926;2023-09-08T00:37:08;13.60;;;9.10;;
70908;SDS011;58554;52.006;5.926;2023-09-08T00:39:35;12.10;;;8.77;;
70908;SDS011;58554;52.006;5.926;2023-09-08T00:42:01;11.02;;;8.70;;
70908;SDS011;58554;52.006;5.926;2023-09-08T00:44:28;11.83;;;9.20;;
70908;SDS011;58554;52.006;5.926;2023-09-08T00:46:55;11.80;;;8.53;;
70908;SDS011;58554;52.006;5.926;2023-09-08T00:49:25;11.40;;;8.57;;
70908;SDS011;58554;52.006;5.926;2023-09-08T00:51:52;11.63;;;9.13;;
70908;SDS011;58554;52.006;5.926;2023-09-08T00:54:18;11.55;;;8.43;;
70908;SDS011;58554;52.006;5.926;2023-09-08T00:56:45;11.73;;;8.83;;
70908;SDS011;58554;52.006;5.926;2023-09-08T00:59:14;11.67;;;9.10;;
70908;SDS011;58554;52.006;5.926;2023-09-08T01:01:42;11.80;;;8.80;;
70908;SDS011;58554;52.006;5.926;2023-09-08T01:04:09;10.98;;;8.65;;
70908;SDS011;58554;52.006;5.926;2023-09-08T01:06:38;13.57;;;9.70;;
70908;SDS011;58554;52.006;5.926;2023-09-08T01:09:05;11.90;;;9.10;;
70908;SDS011;58554;52.006;5.926;2023-09-08T01:11:32;12.25;;;9.13;;
70908;SDS011;58554;52.006;5.926;2023-09-08T01:13:59;13.00;;;9.55;;
70908;SDS011;58554;52.006;5.926;2023-09-08T01:16:26;13.35;;;9.07;;
70908;SDS011;58554;52.006;5.926;2023-09-08T01:18:52;13.27;;;9.00;;
70908;SDS011;58554;52.006;5.926;2023-09-08T01:21:45;14.10;;;9.30;;
70908;SDS011;58554;52.006;5.926;2023-09-08T01:24:38;11.85;;;9.18;;
70908;SDS011;58554;52.006;5.926;2023-09-08T01:27:33;14.75;;;9.90;;
70908;SDS011;58554;52.006;5.926;2023-09-08T01:30:05;12.30;;;9.40;;
70908;SDS011;58554;52.006;5.926;2023-09-08T01:32:33;12.47;;;9.30;;
70908;SDS011;58554;52.006;5.926;2023-09-08T01:35:01;13.23;;;9.85;;
70908;SDS011;58554;52.006;5.926;2023-09-08T01:37:28;11.30;;;9.27;;
70908;SDS011;58554;52.006;5.926;2023-09-08T01:39:55;13.40;;;9.98;;
70908;SDS011;58554;52.006;5.926;2023-09-08T01:42:24;12.95;;;9.55;;
70908;SDS011;58554;52.006;5.926;2023-09-08T01:44:51;12.70;;;9.30;;
70908;SDS011;58554;52.006;5.926;2023-09-08T01:47:17;13.23;;;9.83;;
70908;SDS011;58554;52.006;5.926;2023-09-08T01:49:44;12.70;;;9.75;;
70908;SDS011;58554;52.006;5.926;2023-09-08T01:52:10;13.40;;;9.63;;
70908;SDS011;58554;52.006;5.926;2023-09-08T01:54:37;12.70;;;9.50;;
70908;SDS011;58554;52.006;5.926;2023-09-08T01:57:04;12.65;;;9.80;;
70908;SDS011;58554;52.006;5.926;2023-09-08T01:59:33;12.75;;;9.68;;
70908;SDS011;58554;52.006;5.926;2023-09-08T02:02:00;11.23;;;8.83;;
70908;SDS011;58554;52.006;5.926;2023-09-08T02:04:26;12.02;;;9.50;;
70908;SDS011;58554;52.006;5.926;2023-09-08T02:06:53;12.10;;;9.20;;
70908;SDS011;58554;52.006;5.926;2023-09-08T02:09:19;14.18;;;9.45;;
70908;SDS011;58554;52.006;5.926;2023-09-08T02:11:46;12.90;;;9.95;;
70908;SDS011;58554;52.006;5.926;2023-09-08T02:14:13;12.40;;;9.43;;
70908;SDS011;58554;52.006;5.926;2023-09-08T02:16:42;14.45;;;9.80;;
70908;SDS011;58554;52.006;5.926;2023-09-08T02:19:08;13.97;;;9.90;;
70908;SDS011;58554;52.006;5.926;2023-09-08T02:21:35;13.97;;;9.83;;
70908;SDS011;58554;52.006;5.926;2023-09-08T02:24:01;13.25;;;9.82;;
70908;SDS011;58554;52.006;5.926;2023-09-08T02:26:29;12.68;;;9.68;;
70908;SDS011;58554;52.006;5.926;2023-09-08T02:28:55;12.47;;;10.07;;
70908;SDS011;58554;52.006;5.926;2023-09-08T02:31:22;13.33;;;10.13;;
70908;SDS011;58554;52.006;5.926;2023-09-08T02:33:51;15.63;;;10.03;;
70908;SDS011;58554;52.006;5.926;2023-09-08T02:36:18;13.93;;;10.43;;
70908;SDS011;58554;52.006;5.926;2023-09-08T02:38:44;16.80;;;10.52;;
70908;SDS011;58554;52.006;5.926;2023-09-08T02:41:11;13.60;;;10.40;;
70908;SDS011;58554;52.006;5.926;2023-09-08T02:43:37;13.03;;;10.17;;
70908;SDS011;58554;52.006;5.926;2023-09-08T02:46:04;13.27;;;10.33;;
70908;SDS011;58554;52.006;5.926;2023-09-08T02:48:30;17.53;;;10.90;;
70908;SDS011;58554;52.006;5.926;2023-09-08T02:50:59;14.40;;;10.73;;
70908;SDS011;58554;52.006;5.926;2023-09-08T02:53:26;14.40;;;10.10;;
70908;SDS011;58554;52.006;5.926;2023-09-08T02:55:53;14.20;;;10.40;;
70908;SDS011;58554;52.006;5.926;2023-09-08T02:58:19;14.60;;;10.17;;
70908;SDS011;58554;52.006;5.926;2023-09-08T03:00:46;13.43;;;10.10;;
70908;SDS011;58554;52.006;5.926;2023-09-08T03:03:13;13.93;;;10.50;;
70908;SDS011;58554;52.006;5.926;2023-09-08T03:05:39;14.88;;;10.43;;
70908;SDS011;58554;52.006;5.926;2023-09-08T03:08:09;14.23;;;10.60;;
70908;SDS011;58554;52.006;5.926;2023-09-08T03:10:35;14.38;;;11.23;;
70908;SDS011;58554;52.006;5.926;2023-09-08T03:13:02;14.37;;;10.47;;
70908;SDS011;58554;52.006;5.926;2023-09-08T03:15:30;15.80;;;10.93;;
70908;SDS011;58554;52.006;5.926;2023-09-08T03:17:57;15.23;;;10.45;;
70908;SDS011;58554;52.006;5.926;2023-09-08T03:20:24;14.95;;;9.98;;
70908;SDS011;58554;52.006;5.926;2023-09-08T03:22:51;15.90;;;11.40;;
70908;SDS011;58554;52.006;5.926;2023-09-08T03:25:20;14.15;;;10.32;;
70908;SDS011;58554;52.006;5.926;2023-09-08T03:27:47;14.80;;;10.98;;
70908;SDS011;58554;52.006;5.926;2023-09-08T03:30:14;15.10;;;10.50;;
70908;SDS011;58554;52.006;5.926;2023-09-08T03:32:40;16.55;;;10.82;;
70908;SDS011;58554;52.006;5.926;2023-09-08T03:35:08;14.93;;;11.05;;
70908;SDS011;58554;52.006;5.926;2023-09-08T03:37:35;16.25;;;10.75;;
70908;SDS011;58554;52.006;5.926;2023-09-08T03:40:01;15.75;;;11.38;;
70908;SDS011;58554;52.006;5.926;2023-09-08T03:42:32;15.27;;;10.88;;
70908;SDS011;58554;52.006;5.926;2023-09-08T03:44:59;17.52;;;11.57;;
70908;SDS011;58554;52.006;5.926;2023-09-08T03:47:25;16.60;;;11.18;;
70908;SDS011;58554;52.006;5.926;2023-09-08T03:49:52;16.08;;;10.48;;
70908;SDS011;58554;52.006;5.926;2023-09-08T03:52:18;14.00;;;10.77;;
70908;SDS011;58554;52.006;5.926;2023-09-08T03:54:46;18.57;;;12.10;;
70908;SDS011;58554;52.006;5.926;2023-09-08T03:57:12;16.70;;;11.85;;
70908;SDS011;58554;52.006;5.926;2023-09-08T03:59:41;17.83;;;11.52;;
70908;SDS011;58554;52.006;5.926;2023-09-08T04:02:08;15.93;;;11.60;;
70908;SDS011;58554;52.006;5.926;2023-09-08T04:04:34;16.58;;;11.60;;
70908;SDS011;58554;52.006;5.926;2023-09-08T04:07:01;15.93;;;11.55;;
70908;SDS011;58554;52.006;5.926;2023-09-08T04:09:27;17.83;;;11.63;;
70908;SDS011;58554;52.006;5.926;2023-09-08T04:11:54;14.52;;;11.65;;
70908;SDS011;58554;52.006;5.926;2023-09-08T04:14:21;17.60;;;12.48;;
70908;SDS011;58554;52.006;5.926;2023-09-08T04:16:50;17.92;;;11.07;;
70908;SDS011;58554;52.006;5.926;2023-09-08T04:19:17;17.00;;;11.43;;
70908;SDS011;58554;52.006;5.926;2023-09-08T04:21:44;16.88;;;11.90;;
70908;SDS011;58554;52.006;5.926;2023-09-08T04:24:10;16.23;;;11.90;;
70908;SDS011;58554;52.006;5.926;2023-09-08T04:26:37;16.48;;;11.27;;
70908;SDS011;58554;52.006;5.926;2023-09-08T04:29:03;16.88;;;11.98;;
70908;SDS011;58554;52.006;5.926;2023-09-08T04:31:30;16.05;;;11.65;;
70908;SDS011;58554;52.006;5.926;2023-09-08T04:33:59;16.88;;;11.95;;
70908;SDS011;58554;52.006;5.926;2023-09-08T04:36:25;16.65;;;11.88;;
70908;SDS011;58554;52.006;5.926;2023-09-08T04:38:52;16.08;;;11.70;;
70908;SDS011;58554;52.006;5.926;2023-09-08T04:41:19;17.98;;;12.10;;
70908;SDS011;58554;52.006;5.926;2023-09-08T04:43:45;15.98;;;12.05;;
70908;SDS011;58554;52.006;5.926;2023-09-08T04:46:12;15.93;;;12.82;;
70908;SDS011;58554;52.006;5.926;2023-09-08T04:48:38;17.25;;;11.90;;
70908;SDS011;58554;52.006;5.926;2023-09-08T04:51:07;19.73;;;12.20;;
70908;SDS011;58554;52.006;5.926;2023-09-08T04:53:34;18.85;;;12.23;;
70908;SDS011;58554;52.006;5.926;2023-09-08T04:56:01;19.70;;;12.40;;
70908;SDS011;58554;52.006;5.926;2023-09-08T04:58:27;18.13;;;12.05;;
70908;SDS011;58554;52.006;5.926;2023-09-08T05:00:54;18.80;;;11.73;;
70908;SDS011;58554;52.006;5.926;2023-09-08T05:03:20;17.65;;;12.02;;
70908;SDS011;58554;52.006;5.926;2023-09-08T05:05:47;15.77;;;11.53;;
70908;SDS011;58554;52.006;5.926;2023-09-08T05:08:16;19.25;;;12.05;;
70908;SDS011;58554;52.006;5.926;2023-09-08T05:10:43;17.37;;;12.00;;
70908;SDS011;58554;52.006;5.926;2023-09-08T05:13:10;18.05;;;12.13;;
70908;SDS011;58554;52.006;5.926;2023-09-08T05:15:36;16.97;;;11.47;;
70908;SDS011;58554;52.006;5.926;2023-09-08T05:18:03;19.33;;;12.50;;
70908;SDS011;58554;52.006;5.926;2023-09-08T05:20:31;17.45;;;12.10;;
70908;SDS011;58554;52.006;5.926;2023-09-08T05:22:57;17.27;;;11.70;;
70908;SDS011;58554;52.006;5.926;2023-09-08T05:25:26;19.67;;;12.10;;
70908;SDS011;58554;52.006;5.926;2023-09-08T05:27:53;19.33;;;12.40;;
70908;SDS011;58554;52.006;5.926;2023-09-08T05:30:19;16.87;;;11.83;;
70908;SDS011;58554;52.006;5.926;2023-09-08T05:32:46;16.05;;;11.82;;
70908;SDS011;58554;52.006;5.926;2023-09-08T05:35:13;17.33;;;11.90;;
70908;SDS011;58554;52.006;5.926;2023-09-08T05:37:39;17.55;;;11.90;;
70908;SDS011;58554;52.006;5.926;2023-09-08T05:40:07;18.67;;;11.90;;
70908;SDS011;58554;52.006;5.926;2023-09-08T05:42:37;16.15;;;11.23;;
70908;SDS011;58554;52.006;5.926;2023-09-08T05:45:04;16.88;;;12.02;;
70908;SDS011;58554;52.006;5.926;2023-09-08T05:47:32;18.50;;;12.27;;
70908;SDS011;58554;52.006;5.926;2023-09-08T05:49:59;18.77;;;12.32;;
70908;SDS011;58554;52.006;5.926;2023-09-08T05:52:25;18.83;;;12.10;;
70908;SDS011;58554;52.006;5.926;2023-09-08T05:54:52;19.08;;;11.73;;
70908;SDS011;58554;52.006;5.926;2023-09-08T05:57:19;16.43;;;12.17;;
70908;SDS011;58554;52.006;5.926;2023-09-08T05:59:48;17.30;;;11.87;;
70908;SDS011;58554;52.006;5.926;2023-09-08T06:02:14;17.38;;;11.88;;
70908;SDS011;58554;52.006;5.926;2023-09-08T06:04:41;18.38;;;12.40;;
70908;SDS011;58554;52.006;5.926;2023-09-08T06:07:08;18.70;;;12.07;;
70908;SDS011;58554;52.006;5.926;2023-09-08T06:09:34;18.27;;;12.23;;
70908;SDS011;58554;52.006;5.926;2023-09-08T06:12:01;18.87;;;12.70;;
70908;SDS011;58554;52.006;5.926;2023-09-08T06:14:28;17.63;;;12.27;;
70908;SDS011;58554;52.006;5.926;2023-09-08T06:16:57;21.40;;;12.65;;
70908;SDS011;58554;52.006;5.926;2023-09-08T06:19:24;24.40;;;13.63;;
70908;SDS011;58554;52.006;5.926;2023-09-08T06:21:50;20.73;;;13.27;;
70908;SDS011;58554;52.006;5.926;2023-09-08T06:24:17;19.48;;;12.63;;
70908;SDS011;58554;52.006;5.926;2023-09-08T06:26:43;19.45;;;12.75;;
70908;SDS011;58554;52.006;5.926;2023-09-08T06:29:11;25.17;;;13.03;;
70908;SDS011;58554;52.006;5.926;2023-09-08T06:31:37;18.80;;;13.23;;
70908;SDS011;58554;52.006;5.926;2023-09-08T06:34:06;20.80;;;13.57;;
70908;SDS011;58554;52.006;5.926;2023-09-08T06:36:33;19.48;;;13.32;;
70908;SDS011;58554;52.006;5.926;2023-09-08T06:38:59;19.95;;;13.13;;
70908;SDS011;58554;52.006;5.926;2023-09-08T06:41:26;18.85;;;12.70;;
70908;SDS011;58554;52.006;5.926;2023-09-08T06:43:53;18.05;;;12.40;;
70908;SDS011;58554;52.006;5.926;2023-09-08T06:46:19;20.33;;;13.03;;
70908;SDS011;58554;52.006;5.926;2023-09-08T06:48:46;19.02;;;12.20;;
70908;SDS011;58554;52.006;5.926;2023-09-08T06:51:15;18.85;;;12.82;;
70908;SDS011;58554;52.006;5.926;2023-09-08T06:53:42;21.20;;;13.90;;
70908;SDS011;58554;52.006;5.926;2023-09-08T06:56:09;20.20;;;13.43;;
70908;SDS011;58554;52.006;5.926;2023-09-08T06:58:36;21.75;;;13.63;;
70908;SDS011;58554;52.006;5.926;2023-09-08T07:01:02;20.17;;;12.80;;
70908;SDS011;58554;52.006;5.926;2023-09-08T07:03:29;21.97;;;13.10;;
70908;SDS011;58554;52.006;5.926;2023-09-08T07:05:55;21.40;;;13.02;;
70908;SDS011;58554;52.006;5.926;2023-09-08T07:08:24;21.02;;;12.88;;
70908;SDS011;58554;52.006;5.926;2023-09-08T07:10:52;20.45;;;13.23;;
70908;SDS011;58554;52.006;5.926;2023-09-08T07:13:18;22.43;;;12.90;;
70908;SDS011;58554;52.006;5.926;2023-09-08T07:15:45;20.05;;;12.68;;
70908;SDS011;58554;52.006;5.926;2023-09-08T07:18:12;20.20;;;13.13;;
70908;SDS011;58554;52.006;5.926;2023-09-08T07:20:38;23.73;;;12.95;;
70908;SDS011;58554;52.006;5.926;2023-09-08T07:23:05;18.63;;;12.10;;
70908;SDS011;58554;52.006;5.926;2023-09-08T07:25:35;21.73;;;12.80;;
70908;SDS011;58554;52.006;5.926;2023-09-08T07:28:01;18.10;;;11.95;;
70908;SDS011;58554;52.006;5.926;2023-09-08T07:30:31;17.50;;;12.27;;
70908;SDS011;58554;52.006;5.926;2023-09-08T07:32:57;19.70;;;13.07;;
70908;SDS011;58554;52.006;5.926;2023-09-08T07:35:24;19.17;;;12.15;;
70908;SDS011;58554;52.006;5.926;2023-09-08T07:37:51;17.30;;;11.85;;
70908;SDS011;58554;52.006;5.926;2023-09-08T07:40:17;16.98;;;11.90;;
70908;SDS011;58554;52.006;5.926;2023-09-08T07:42:47;18.30;;;12.40;;
70908;SDS011;58554;52.006;5.926;2023-09-08T07:45:13;18.30;;;12.02;;
70908;SDS011;58554;52.006;5.926;2023-09-08T07:47:40;18.20;;;12.27;;
70908;SDS011;58554;52.006;5.926;2023-09-08T07:50:16;20.63;;;12.43;;
70908;SDS011;58554;52.006;5.926;2023-09-08T07:52:48;17.83;;;12.55;;
70908;SDS011;58554;52.006;5.926;2023-09-08T07:55:17;19.53;;;12.17;;
70908;SDS011;58554;52.006;5.926;2023-09-08T07:57:48;18.58;;;13.35;;
70908;SDS011;58554;52.006;5.926;2023-09-08T08:00:17;18.50;;;12.00;;
70908;SDS011;58554;52.006;5.926;2023-09-08T08:02:45;17.10;;;11.27;;
70908;SDS011;58554;52.006;5.926;2023-09-08T08:05:14;18.33;;;12.90;;
70908;SDS011;58554;52.006;5.926;2023-09-08T08:07:41;16.92;;;11.80;;
70908;SDS011;58554;52.006;5.926;2023-09-08T08:10:09;18.92;;;12.32;;
70908;SDS011;58554;52.006;5.926;2023-09-08T08:12:37;19.95;;;12.32;;
70908;SDS011;58554;52.006;5.926;2023-09-08T08:15:08;19.13;;;12.27;;
70908;SDS011;58554;52.006;5.926;2023-09-08T08:17:35;20.20;;;12.00;;
70908;SDS011;58554;52.006;5.926;2023-09-08T08:20:03;19.42;;;12.05;;
70908;SDS011;58554;52.006;5.926;2023-09-08T08:22:32;18.38;;;12.32;;
70908;SDS011;58554;52.006;5.926;2023-09-08T08:24:59;22.80;;;12.80;;
70908;SDS011;58554;52.006;5.926;2023-09-08T08:27:27;18.07;;;12.40;;
70908;SDS011;58554;52.006;5.926;2023-09-08T08:29:53;20.37;;;12.30;;
70908;SDS011;58554;52.006;5.926;2023-09-08T08:32:23;18.07;;;12.40;;
70908;SDS011;58554;52.006;5.926;2023-09-08T08:34:49;20.45;;;13.15;;
70908;SDS011;58554;52.006;5.926;2023-09-08T08:37:16;18.03;;;12.53;;
70908;SDS011;58554;52.006;5.926;2023-09-08T08:39:42;19.00;;;12.63;;
70908;SDS011;58554;52.006;5.926;2023-09-08T08:42:09;20.20;;;12.70;;
70908;SDS011;58554;52.006;5.926;2023-09-08T08:44:37;21.77;;;12.13;;
70908;SDS011;58554;52.006;5.926;2023-09-08T08:47:05;18.87;;;12.83;;
70908;SDS011;58554;52.006;5.926;2023-09-08T08:49:38;21.17;;;13.30;;
70908;SDS011;58554;52.006;5.926;2023-09-08T08:52:09;19.92;;;12.35;;
70908;SDS011;58554;52.006;5.926;2023-09-08T08:54:38;17.67;;;12.27;;
70908;SDS011;58554;52.006;5.926;2023-09-08T08:57:06;19.10;;;13.00;;
70908;SDS011;58554;52.006;5.926;2023-09-08T08:59:33;19.67;;;13.10;;
70908;SDS011;58554;52.006;5.926;2023-09-08T09:02:02;20.92;;;12.85;;
70908;SDS011;58554;52.006;5.926;2023-09-08T09:04:31;19.93;;;13.07;;
70908;SDS011;58554;52.006;5.926;2023-09-08T09:07:00;22.52;;;13.80;;
70908;SDS011;58554;52.006;5.926;2023-09-08T09:09:28;20.80;;;12.97;;
70908;SDS011;58554;52.006;5.926;2023-09-08T09:11:56;19.57;;;13.20;;
70908;SDS011;58554;52.006;5.926;2023-09-08T09:14:22;17.33;;;12.80;;
70908;SDS011;58554;52.006;5.926;2023-09-08T09:16:50;20.53;;;12.77;;
70908;SDS011;58554;52.006;5.926;2023-09-08T09:19:17;20.00;;;12.70;;
70908;SDS011;58554;52.006;5.926;2023-09-08T09:21:47;20.03;;;12.47;;
70908;SDS011;58554;52.006;5.926;2023-09-08T09:24:17;20.00;;;12.73;;
70908;SDS011;58554;52.006;5.926;2023-09-08T09:26:55;17.23;;;12.27;;
70908;SDS011;58554;52.006;5.926;2023-09-08T09:29:22;16.77;;;11.70;;
70908;SDS011;58554;52.006;5.926;2023-09-08T09:31:51;17.83;;;11.70;;
70908;SDS011;58554;52.006;5.926;2023-09-08T09:34:20;17.27;;;10.90;;
70908;SDS011;58554;52.006;5.926;2023-09-08T09:36:48;16.47;;;11.43;;
70908;SDS011;58554;52.006;5.926;2023-09-08T09:39:19;17.83;;;11.37;;
70908;SDS011;58554;52.006;5.926;2023-09-08T09:41:48;18.03;;;11.63;;
70908;SDS011;58554;52.006;5.926;2023-09-08T09:44:19;16.27;;;10.85;;
70908;SDS011;58554;52.006;5.926;2023-09-08T09:46:47;18.38;;;11.20;;
70908;SDS011;58554;52.006;5.926;2023-09-08T09:49:17;16.17;;;11.95;;
70908;SDS011;58554;52.006;5.926;2023-09-08T09:51:44;15.50;;;11.07;;
70908;SDS011;58554;52.006;5.926;2023-09-08T09:54:14;14.13;;;10.83;;
70908;SDS011;58554;52.006;5.926;2023-09-08T09:56:43;18.02;;;11.52;;
70908;SDS011;58554;52.006;5.926;2023-09-08T09:59:12;15.43;;;10.90;;
70908;SDS011;58554;52.006;5.926;2023-09-08T10:01:40;15.70;;;11.27;;
70908;SDS011;58554;52.006;5.926;2023-09-08T10:04:08;15.18;;;11.32;;
70908;SDS011;58554;52.006;5.926;2023-09-08T10:06:36;16.25;;;11.80;;
70908;SDS011;58554;52.006;5.926;2023-09-08T10:09:06;19.23;;;11.85;;
70908;SDS011;58554;52.006;5.926;2023-09-08T10:11:34;18.45;;;12.90;;
70908;SDS011;58554;52.006;5.926;2023-09-08T10:14:11;18.70;;;12.83;;
70908;SDS011;58554;52.006;5.926;2023-09-08T10:16:39;18.45;;;13.15;;
70908;SDS011;58554;52.006;5.926;2023-09-08T10:19:09;18.70;;;12.67;;
70908;SDS011;58554;52.006;5.926;2023-09-08T10:21:39;18.13;;;13.38;;
70908;SDS011;58554;52.006;5.926;2023-09-08T10:24:11;19.83;;;14.13;;
70908;SDS011;58554;52.006;5.926;2023-09-08T10:26:43;20.77;;;14.15;;
70908;SDS011;58554;52.006;5.926;2023-09-08T10:29:20;21.57;;;14.13;;
70908;SDS011;58554;52.006;5.926;2023-09-08T10:31:49;19.27;;;12.93;;
70908;SDS011;58554;52.006;5.926;2023-09-08T10:34:17;15.83;;;11.47;;
70908;SDS011;58554;52.006;5.926;2023-09-08T10:36:45;15.70;;;11.38;;
70908;SDS011;58554;52.006;5.926;2023-09-08T10:39:27;19.10;;;12.73;;
70908;SDS011;58554;52.006;5.926;2023-09-08T10:45:02;15.93;;;10.77;;
70908;SDS011;58554;52.006;5.926;2023-09-08T10:47:54;18.20;;;11.18;;
70908;SDS011;58554;52.006;5.926;2023-09-08T10:50:26;16.25;;;11.20;;
70908;SDS011;58554;52.006;5.926;2023-09-08T10:53:04;14.93;;;11.55;;
70908;SDS011;58554;52.006;5.926;2023-09-08T10:55:42;13.82;;;10.48;;
70908;SDS011;58554;52.006;5.926;2023-09-08T10:58:10;14.07;;;10.87;;
70908;SDS011;58554;52.006;5.926;2023-09-08T11:00:45;15.77;;;11.25;;
70908;SDS011;58554;52.006;5.926;2023-09-08T11:03:28;13.77;;;10.53;;
70908;SDS011;58554;52.006;5.926;2023-09-08T11:06:11;14.13;;;11.13;;
70908;SDS011;58554;52.006;5.926;2023-09-08T11:08:39;15.95;;;11.00;;
70908;SDS011;58554;52.006;5.926;2023-09-08T11:11:11;16.07;;;11.50;;
70908;SDS011;58554;52.006;5.926;2023-09-08T11:13:40;19.60;;;13.30;;
70908;SDS011;58554;52.006;5.926;2023-09-08T11:16:09;17.30;;;12.30;;
70908;SDS011;58554;52.006;5.926;2023-09-08T11:18:36;17.13;;;12.97;;
70908;SDS011;58554;52.006;5.926;2023-09-08T11:21:04;18.75;;;13.02;;
70908;SDS011;58554;52.006;5.926;2023-09-08T11:23:36;17.27;;;11.60;;
70908;SDS011;58554;52.006;5.926;2023-09-08T11:26:03;15.43;;;11.45;;
70908;SDS011;58554;52.006;5.926;2023-09-08T11:28:31;14.97;;;11.07;;
70908;SDS011;58554;52.006;5.926;2023-09-08T11:30:58;17.43;;;11.63;;
70908;SDS011;58554;52.006;5.926;2023-09-08T11:33:27;17.58;;;12.90;;
70908;SDS011;58554;52.006;5.926;2023-09-08T11:35:59;16.67;;;13.30;;
70908;SDS011;58554;52.006;5.926;2023-09-08T11:38:26;17.00;;;12.17;;
70908;SDS011;58554;52.006;5.926;2023-09-08T11:40:55;16.30;;;11.23;;
70908;SDS011;58554;52.006;5.926;2023-09-08T11:43:24;15.45;;;11.30;;
70908;SDS011;58554;52.006;5.926;2023-09-08T11:45:52;15.23;;;10.83;;
70908;SDS011;58554;52.006;5.926;2023-09-08T11:48:19;16.15;;;11.68;;
70908;SDS011;58554;52.006;5.926;2023-09-08T11:50:48;13.03;;;9.47;;
70908;SDS011;58554;52.006;5.926;2023-09-08T11:53:20;14.57;;;10.38;;
70908;SDS011;58554;52.006;5.926;2023-09-08T11:55:48;12.97;;;9.57;;
70908;SDS011;58554;52.006;5.926;2023-09-08T11:58:15;11.97;;;10.43;;
70908;SDS011;58554;52.006;5.926;2023-09-08T12:00:46;15.02;;;9.80;;
70908;SDS011;58554;52.006;5.926;2023-09-08T12:03:14;14.63;;;10.77;;
70908;SDS011;58554;52.006;5.926;2023-09-08T12:05:41;13.20;;;9.87;;
70908;SDS011;58554;52.006;5.926;2023-09-08T12:08:19;14.32;;;9.85;;
70908;SDS011;58554;52.006;5.926;2023-09-08T12:10:46;12.40;;;9.00;;
70908;SDS011;58554;52.006;5.926;2023-09-08T12:13:12;11.70;;;8.90;;
70908;SDS011;58554;52.006;5.926;2023-09-08T12:15:46;12.57;;;9.17;;
70908;SDS011;58554;52.006;5.926;2023-09-08T12:18:12;9.57;;;8.48;;
70908;SDS011;58554;52.006;5.926;2023-09-08T12:20:40;12.37;;;9.30;;
70908;SDS011;58554;52.006;5.926;2023-09-08T12:23:15;12.35;;;9.15;;
70908;SDS011;58554;52.006;5.926;2023-09-08T12:25:48;11.47;;;8.93;;
70908;SDS011;58554;52.006;5.926;2023-09-08T12:28:19;12.82;;;8.95;;
70908;SDS011;58554;52.006;5.926;2023-09-08T12:30:49;10.73;;;8.17;;
70908;SDS011;58554;52.006;5.926;2023-09-08T12:33:16;12.32;;;9.88;;
70908;SDS011;58554;52.006;5.926;2023-09-08T12:35:43;11.73;;;9.20;;
70908;SDS011;58554;52.006;5.926;2023-09-08T12:38:11;11.15;;;9.27;;
70908;SDS011;58554;52.006;5.926;2023-09-08T12:40:43;10.87;;;8.60;;
70908;SDS011;58554;52.006;5.926;2023-09-08T12:43:09;12.00;;;9.30;;
70908;SDS011;58554;52.006;5.926;2023-09-08T12:45:36;11.37;;;8.93;;
70908;SDS011;58554;52.006;5.926;2023-09-08T12:48:02;13.98;;;9.52;;
70908;SDS011;58554;52.006;5.926;2023-09-08T12:50:32;12.30;;;9.20;;
70908;SDS011;58554;52.006;5.926;2023-09-08T12:52:59;11.15;;;9.20;;
70908;SDS011;58554;52.006;5.926;2023-09-08T12:55:26;12.33;;;9.17;;
70908;SDS011;58554;52.006;5.926;2023-09-08T12:57:55;10.57;;;9.48;;
70908;SDS011;58554;52.006;5.926;2023-09-08T13:00:22;10.93;;;9.30;;
70908;SDS011;58554;52.006;5.926;2023-09-08T13:02:49;11.43;;;10.05;;
70908;SDS011;58554;52.006;5.926;2023-09-08T13:05:16;11.97;;;9.70;;
70908;SDS011;58554;52.006;5.926;2023-09-08T13:07:43;12.30;;;10.30;;
70908;SDS011;58554;52.006;5.926;2023-09-08T13:10:09;13.30;;;9.60;;
70908;SDS011;58554;52.006;5.926;2023-09-08T13:12:36;14.32;;;10.07;;
70908;SDS011;58554;52.006;5.926;2023-09-08T13:15:06;12.05;;;10.13;;
70908;SDS011;58554;52.006;5.926;2023-09-08T13:17:34;13.90;;;9.82;;
70908;SDS011;58554;52.006;5.926;2023-09-08T13:20:01;13.47;;;10.73;;
70908;SDS011;58554;52.006;5.926;2023-09-08T13:22:28;11.33;;;10.07;;
70908;SDS011;58554;52.006;5.926;2023-09-08T13:24:54;12.80;;;10.20;;
70908;SDS011;58554;52.006;5.926;2023-09-08T13:27:21;13.75;;;10.30;;
70908;SDS011;58554;52.006;5.926;2023-09-08T13:29:47;13.18;;;9.35;;
70908;SDS011;58554;52.006;5.926;2023-09-08T13:32:17;11.85;;;9.90;;
70908;SDS011;58554;52.006;5.926;2023-09-08T13:34:43;13.52;;;10.00;;
70908;SDS011;58554;52.006;5.926;2023-09-08T13:37:10;11.77;;;9.98;;
70908;SDS011;58554;52.006;5.926;2023-09-08T13:39:36;11.98;;;9.82;;
70908;SDS011;58554;52.006;5.926;2023-09-08T13:42:03;11.33;;;9.63;;
70908;SDS011;58554;52.006;5.926;2023-09-08T13:44:31;15.45;;;9.48;;
70908;SDS011;58554;52.006;5.926;2023-09-08T13:46:57;11.75;;;9.68;;
70908;SDS011;58554;52.006;5.926;2023-09-08T13:49:27;10.27;;;8.63;;
70908;SDS011;58554;52.006;5.926;2023-09-08T13:51:53;11.63;;;8.43;;
70908;SDS011;58554;52.006;5.926;2023-09-08T13:54:20;12.77;;;8.77;;
70908;SDS011;58554;52.006;5.926;2023-09-08T13:56:56;10.82;;;8.75;;
70908;SDS011;58554;52.006;5.926;2023-09-08T13:59:25;10.63;;;8.65;;
70908;SDS011;58554;52.006;5.926;2023-09-08T14:01:52;10.27;;;8.67;;
70908;SDS011;58554;52.006;5.926;2023-09-08T14:04:19;9.63;;;8.43;;
70908;SDS011;58554;52.006;5.926;2023-09-08T14:06:48;11.68;;;8.88;;
70908;SDS011;58554;52.006;5.926;2023-09-08T14:09:15;14.38;;;8.98;;
70908;SDS011;58554;52.006;5.926;2023-09-08T14:11:42;11.17;;;8.90;;
70908;SDS011;58554;52.006;5.926;2023-09-08T14:14:09;16.13;;;9.88;;
70908;SDS011;58554;52.006;5.926;2023-09-08T14:16:35;13.48;;;9.57;;
70908;SDS011;58554;52.006;5.926;2023-09-08T14:19:02;11.20;;;9.43;;
70908;SDS011;58554;52.006;5.926;2023-09-08T14:21:29;10.38;;;9.30;;
70908;SDS011;58554;52.006;5.926;2023-09-08T14:24:04;10.90;;;9.25;;
70908;SDS011;58554;52.006;5.926;2023-09-08T14:26:32;11.68;;;9.25;;
70908;SDS011;58554;52.006;5.926;2023-09-08T14:28:59;12.73;;;9.93;;
70908;SDS011;58554;52.006;5.926;2023-09-08T14:31:26;11.65;;;9.30;;
70908;SDS011;58554;52.006;5.926;2023-09-08T14:33:53;12.07;;;9.10;;